Time;durP1;ratioP1;P1;durP2;ratioP2;P2;SDS_P1;SDS_P2;PMS_P1;PMS_P2;Temp;Humidity;BMP_temperature;BMP_pressure;BME280_temperature;BME280_humidity;BME280_pressure;Samples;Min_cycle;Max_cycle;Signal;HPM_P1;HPM_P2
2023/06/23 00:01:40;;;;;;;10.50;9.50;;;;;;;21.13;72.77;98505.84;222193;1301;22581;-71
2023/06/23 00:06:43;;;;;;;11.30;10.20;;;;;;;21.10;72.75;98505.39;222345;1302;22592;-70
2023/06/23 00:11:50;;;;;;;11.50;9.70;;;;;;;21.05;72.88;98505.49;222226;1301;22573;-70
2023/06/23 00:16:52;;;;;;;10.90;9.80;;;;;;;21.00;73.02;98503.64;222272;1295;22588;-70
2023/06/23 00:21:55;;;;;;;10.60;9.50;;;;;;;20.96;73.08;98503.98;222243;1295;22560;-70
2023/06/23 00:26:57;;;;;;;10.20;9.30;;;;;;;20.92;73.33;98498.39;222171;1302;22582;-71
2023/06/23 00:31:59;;;;;;;11.30;9.60;;;;;;;20.89;73.62;98495.97;222178;1302;24953;-70
2023/06/23 00:37:02;;;;;;;11.40;9.70;;;;;;;20.89;73.79;98485.39;222259;1295;22639;-70
2023/06/23 00:42:06;;;;;;;10.50;9.50;;;;;;;20.88;73.74;98482.53;222203;1301;22573;-70
2023/06/23 00:47:09;;;;;;;11.10;10.10;;;;;;;20.87;74.00;98478.45;222234;1298;22592;-70
2023/06/23 00:52:11;;;;;;;11.40;9.90;;;;;;;20.86;74.08;98461.79;222064;1302;22564;-70
2023/06/23 00:57:14;;;;;;;11.30;10.10;;;;;;;20.87;74.14;98457.39;222181;1282;22549;-71
2023/06/23 01:02:16;;;;;;;11.30;10.40;;;;;;;20.83;74.13;98450.27;222232;1301;22980;-71
2023/06/23 01:07:28;;;;;;;12.20;10.80;;;;;;;20.78;74.25;98439.14;222244;1302;22617;-71
2023/06/23 01:12:42;;;;;;;11.70;10.50;;;;;;;20.72;74.31;98425.64;222225;1302;22580;-71
2023/06/23 01:17:51;;;;;;;12.40;11.20;;;;;;;20.65;74.39;98417.17;222182;1302;24970;-71
2023/06/23 01:22:56;;;;;;;;;;;;;;;20.53;74.63;98414.86;222201;1298;22652;-70
2023/06/23 01:28:26;;;;;;;15.70;11.00;;;;;;;20.45;75.07;98407.25;222123;1298;22634;-70
2023/06/23 01:33:39;;;;;;;12.10;10.70;;;;;;;20.39;75.38;98378.08;222177;1301;22569;-70
2023/06/23 01:38:47;;;;;;;13.10;11.50;;;;;;;20.35;75.59;98352.80;222193;1298;22569;-70
2023/06/23 01:43:55;;;;;;;11.70;10.50;;;;;;;20.32;75.81;98356.02;222134;1298;24301;-70
2023/06/23 01:49:01;;;;;;;12.90;11.50;;;;;;;20.34;76.12;98376.90;222222;1298;22582;-71
2023/06/23 01:54:04;;;;;;;13.50;12.10;;;;;;;20.40;76.39;98376.38;222253;1302;22622;-70
2023/06/23 01:59:10;;;;;;;16.60;12.50;;;;;;;20.46;76.38;98384.61;222106;1301;22565;-70
2023/06/23 02:04:22;;;;;;;13.80;12.20;;;;;;;20.50;76.20;98392.39;222177;1298;22629;-71
2023/06/23 02:09:37;;;;;;;13.00;11.70;;;;;;;20.49;76.22;98402.60;222020;1301;22587;-70
2023/06/23 02:14:41;;;;;;;14.60;12.40;;;;;;;20.49;76.35;98416.66;222169;1301;24400;-70
2023/06/23 02:19:48;;;;;;;13.80;12.40;;;;;;;20.50;76.33;98431.32;222263;1296;22653;-70
2023/06/23 02:24:52;;;;;;;15.30;13.40;;;;;;;20.51;76.45;98431.48;222272;1298;22615;-71
2023/06/23 02:29:56;;;;;;;16.30;13.10;;;;;;;20.51;76.48;98434.81;222199;1296;24288;-70
2023/06/23 02:34:59;;;;;;;13.80;12.50;;;;;;;20.52;76.55;98444.16;222256;1295;22602;-70
2023/06/23 02:40:10;;;;;;;14.90;13.30;;;;;;;20.53;76.72;98446.59;222322;1298;22601;-70
2023/06/23 02:45:18;;;;;;;14.00;12.70;;;;;;;20.58;76.86;98433.15;222326;1295;22611;-70
2023/06/23 02:50:26;;;;;;;13.90;12.60;;;;;;;20.61;76.83;98419.70;222289;1295;22568;-70
2023/06/23 02:55:30;;;;;;;14.60;13.20;;;;;;;20.66;76.84;98425.45;222265;1300;22738;-71
2023/06/23 03:00:34;;;;;;;12.80;11.50;;;;;;;20.70;76.92;98432.66;222127;1295;22587;-71
2023/06/23 03:05:37;;;;;;;15.90;13.00;;;;;;;20.78;77.01;98446.61;222298;1298;25347;-71
2023/06/23 03:10:38;;;;;;;14.00;12.50;;;;;;;20.86;76.96;98452.88;222270;1303;22575;-71
2023/06/23 03:15:47;;;;;;;15.30;13.30;;;;;;;20.94;77.01;98452.19;222164;1297;22569;-70
2023/06/23 03:20:52;;;;;;;13.70;12.20;;;;;;;21.00;77.07;98444.92;222332;1301;22673;-70
2023/06/23 03:26:03;;;;;;;13.80;12.40;;;;;;;21.04;77.15;98445.31;222135;1300;25268;-70
2023/06/23 03:31:07;;;;;;;13.70;12.40;;;;;;;21.09;77.06;98459.02;222200;1301;23092;-70
2023/06/23 03:36:19;;;;;;;14.60;12.50;;;;;;;21.16;77.10;98461.20;222213;1301;22620;-70
2023/06/23 03:41:21;;;;;;;14.30;12.90;;;;;;;21.23;76.93;98448.40;222304;1295;22605;-70
2023/06/23 03:46:29;;;;;;;13.80;12.40;;;;;;;21.31;76.86;98422.95;222155;1301;22583;-70
2023/06/23 03:51:34;;;;;;;14.20;12.80;;;;;;;21.42;76.96;98407.41;222282;1298;22595;-70
2023/06/23 03:56:38;;;;;;;13.60;12.20;;;;;;;21.50;76.93;98401.46;222257;1295;22615;-70
2023/06/23 04:01:42;;;;;;;13.70;12.40;;;;;;;21.60;77.02;98394.05;222251;1298;22575;-70
2023/06/23 04:06:47;;;;;;;14.10;12.60;;;;;;;21.74;76.84;98385.86;222302;1295;22583;-70
2023/06/23 04:11:52;;;;;;;13.70;12.30;;;;;;;21.98;76.87;98381.13;222342;1299;22643;-71
2023/06/23 04:16:55;;;;;;;14.90;13.60;;;;;;;22.26;76.51;98359.60;222231;1302;22582;-71
2023/06/23 04:22:00;;;;;;;15.90;14.20;;;;;;;22.56;76.23;98348.78;222313;1295;22572;-70
2023/06/23 04:27:04;;;;;;;15.40;14.00;;;;;;;22.80;75.88;98359.99;222302;1302;22589;-70
2023/06/23 04:32:11;;;;;;;15.60;14.10;;;;;;;22.93;75.42;98350.29;222288;1279;22683;-71
2023/06/23 04:37:44;;;;;;;15.60;14.10;;;;;;;23.00;75.35;98381.51;222262;1295;22734;-71
2023/06/23 04:43:09;;;;;;;16.60;14.80;;;;;;;22.97;75.20;98475.03;222166;1301;22597;-71
2023/06/23 04:48:12;;;;;;;15.40;13.60;;;;;;;22.59;76.53;98542.07;222062;1302;22590;-71
2023/06/23 04:53:21;;;;;;;15.80;5.20;;;;;;;21.80;76.63;98531.00;222207;1298;25430;-71
2023/06/23 04:58:28;;;;;;;12.30;4.70;;;;;;;20.84;76.98;98544.92;222299;1298;22698;-73
2023/06/23 05:03:35;;;;;;;12.30;4.60;;;;;;;19.66;78.72;98496.30;222197;1300;22516;-77
2023/06/23 05:08:44;;;;;;;10.70;4.10;;;;;;;18.74;79.63;98481.36;222195;1302;22599;-77
2023/06/23 05:14:37;;;;;;;;;;;;;;;;;;;;;
2023/06/23 05:20:04;;;;;;;17.20;5.00;;;;;;;18.03;82.04;98526.30;222133;1300;22582;-77
2023/06/23 05:25:32;;;;;;;;;;;;;;;;;;;;;
2023/06/23 05:31:09;;;;;;;10.60;4.60;;;;;;;17.94;83.80;98464.47;222128;1302;22586;-78
2023/06/23 05:36:55;;;;;;;16.90;6.80;;;;;;;17.96;84.33;98442.02;222240;1302;22562;-76
2023/06/23 05:42:37;;;;;;;17.20;8.30;;;;;;;18.04;84.97;98437.16;222252;1302;22565;-77
2023/06/23 05:48:02;;;;;;;18.30;11.10;;;;;;;18.17;85.78;98443.41;222003;1288;22653;-77
2023/06/23 05:53:22;;;;;;;17.30;10.70;;;;;;;18.30;86.07;98426.91;221907;1279;22586;-77
2023/06/23 05:58:52;;;;;;;18.70;8.00;;;;;;;18.40;86.45;98398.74;222001;1295;22562;-77
2023/06/23 06:04:54;;;;;;;24.50;8.60;;;;;;;18.44;86.24;98411.42;221848;1282;22569;-78
2023/06/23 06:10:02;;;;;;;14.10;6.10;;;;;;;18.45;86.43;98460.19;221983;1295;22555;-78
2023/06/23 06:15:17;;;;;;;14.30;6.60;;;;;;;18.49;87.23;98476.84;220209;1295;2429637;-74
2023/06/23 06:20:34;;;;;;;13.50;6.90;;;;;;;18.55;87.05;98462.48;221875;1283;22562;-75
2023/06/23 06:25:55;;;;;;;14.30;7.90;;;;;;;18.58;86.91;98413.34;221746;1295;22594;-76
2023/06/23 06:31:14;;;;;;;14.30;8.40;;;;;;;18.60;86.93;98396.15;221836;1298;22567;-77
2023/06/23 06:36:32;;;;;;;17.70;10.60;;;;;;;18.69;87.49;98394.70;221714;1295;23464;-74
2023/06/23 06:42:37;;;;;;;;;;;;;;;;;;;;;
2023/06/23 06:48:19;;;;;;;17.80;14.00;;;;;;;18.96;88.23;98447.70;221521;1288;22591;-76
2023/06/23 06:53:28;;;;;;;21.60;17.00;;;;;;;19.11;88.44;98460.46;222087;1295;22635;-74
2023/06/23 06:58:53;;;;;;;20.40;17.70;;;;;;;19.29;88.73;98469.66;221812;1302;22603;-73
2023/06/23 07:04:13;;;;;;;15.30;13.60;;;;;;;19.50;88.90;98485.60;222096;1295;22563;-73
2023/06/23 07:09:43;;;;;;;19.70;16.50;;;;;;;19.72;88.91;98494.77;221663;1298;138870;-73
2023/06/23 07:15:23;;;;;;;23.10;17.20;;;;;;;19.93;88.84;98484.14;221825;1282;138784;-76
2023/06/23 07:21:03;;;;;;;19.60;17.60;;;;;;;20.15;88.89;98475.56;221881;1295;138996;-73
2023/06/23 07:26:26;;;;;;;21.40;17.90;;;;;;;20.38;88.78;98468.83;221736;1295;138821;-74
2023/06/23 07:31:38;;;;;;;19.50;17.60;;;;;;;20.65;88.69;98476.98;221982;1282;138861;-74
2023/06/23 07:36:49;;;;;;;18.40;15.60;;;;;;;20.94;88.43;98482.28;221895;1295;138898;-73
2023/06/23 07:41:55;;;;;;;16.80;14.20;;;;;;;21.19;87.78;98485.13;222027;1298;138894;-73
2023/06/23 07:47:00;;;;;;;16.00;14.30;;;;;;;21.43;87.24;98491.34;222040;1295;24922;-75
2023/06/23 07:52:08;;;;;;;17.70;15.60;;;;;;;21.67;87.16;98496.13;221906;1299;139312;-75
2023/06/23 07:57:18;;;;;;;17.00;15.30;;;;;;;22.04;87.24;98499.30;221888;1295;139079;-76
2023/06/23 08:02:20;;;;;;;18.20;16.10;;;;;;;22.40;86.60;98504.30;221758;1300;138955;-75
2023/06/23 08:07:25;;;;;;;23.20;18.00;;;;;;;22.75;86.26;98506.98;221830;1295;138976;-74
2023/06/23 08:12:28;;;;;;;19.60;17.50;;;;;;;23.19;86.35;98508.73;221842;1295;139005;-74
2023/06/23 08:17:30;;;;;;;22.80;19.40;;;;;;;23.46;85.07;98511.05;221750;1298;138892;-74
2023/06/23 08:22:46;;;;;;;134.10;31.30;;;;;;;23.85;85.24;98514.48;221657;1295;22610;-76
2023/06/23 08:28:06;;;;;;;21.50;19.30;;;;;;;24.22;84.31;98527.66;221794;1279;140109;-75
2023/06/23 08:33:12;;;;;;;20.80;18.60;;;;;;;24.44;83.54;98537.15;221835;1301;138690;-75
2023/06/23 08:38:16;;;;;;;20.90;18.60;;;;;;;24.74;83.08;98543.40;221609;1292;138889;-75
2023/06/23 08:43:26;;;;;;;22.20;19.70;;;;;;;25.04;82.26;98546.94;221536;1295;138908;-75
2023/06/23 08:48:38;;;;;;;26.90;20.90;;;;;;;25.24;81.18;98548.11;221775;1295;138871;-76
2023/06/23 08:53:40;;;;;;;24.40;21.80;;;;;;;25.37;80.79;98544.98;221787;1295;139441;-76
2023/06/23 08:58:43;;;;;;;23.90;21.70;;;;;;;25.50;80.35;98548.29;221943;1291;24332;-75
2023/06/23 09:03:45;;;;;;;24.80;22.30;;;;;;;25.62;80.14;98554.58;221520;1295;138960;-74
2023/06/23 09:08:50;;;;;;;26.40;23.20;;;;;;;25.80;80.03;98568.91;221894;1283;138940;-75
2023/06/23 09:13:55;;;;;;;24.30;21.90;;;;;;;25.96;79.93;98565.25;221688;1302;138909;-75
2023/06/23 09:19:02;;;;;;;19.20;17.20;;;;;;;26.27;79.56;98562.90;221694;1298;138896;-74
2023/06/23 09:24:10;;;;;;;17.70;14.10;;;;;;;26.47;78.46;98564.87;221594;1299;138930;-75
2023/06/23 09:29:24;;;;;;;16.40;13.80;;;;;;;26.59;77.44;98561.34;221691;1301;22590;-75
2023/06/23 09:34:30;;;;;;;15.10;13.40;;;;;;;26.65;76.60;98557.45;221746;1301;22556;-75
2023/06/23 09:39:34;;;;;;;13.80;12.20;;;;;;;26.81;76.75;98554.17;221533;1301;138645;-75
2023/06/23 09:44:45;;;;;;;12.30;10.90;;;;;;;27.16;76.50;98560.79;221476;1295;138860;-75
2023/06/23 09:49:49;;;;;;;11.10;9.90;;;;;;;27.41;75.02;98564.05;221851;1299;138861;-75
2023/06/23 09:54:52;;;;;;;10.60;9.70;;;;;;;27.58;74.14;98557.55;221783;1298;138707;-75
2023/06/23 09:59:55;;;;;;;11.10;10.00;;;;;;;27.80;73.62;98557.69;221815;1279;138811;-75
2023/06/23 10:05:03;;;;;;;9.70;8.60;;;;;;;28.13;73.42;98562.30;221682;1295;22652;-75
2023/06/23 10:10:07;;;;;;;9.70;8.60;;;;;;;28.47;72.47;98559.25;221379;1285;138145;-76
2023/06/23 10:15:13;;;;;;;8.30;7.50;;;;;;;28.71;71.65;98559.79;221556;1296;138460;-75
2023/06/23 10:20:16;;;;;;;9.00;8.10;;;;;;;28.88;71.06;98559.80;221555;1279;138718;-75
2023/06/23 10:25:20;;;;;;;10.40;7.60;;;;;;;29.07;69.97;98568.11;221511;1295;139648;-75
2023/06/23 10:30:23;;;;;;;8.80;7.10;;;;;;;29.17;68.97;98572.23;221656;1297;138857;-76
2023/06/23 10:35:29;;;;;;;7.80;6.90;;;;;;;29.37;69.13;98575.48;221583;1299;138744;-75
2023/06/23 10:40:38;;;;;;;9.60;7.20;;;;;;;29.53;68.19;98579.94;221409;1298;22642;-78
2023/06/23 10:45:40;;;;;;;8.20;6.70;;;;;;;29.66;67.51;98582.33;221067;1295;138301;-75
2023/06/23 10:50:43;;;;;;;8.80;5.70;;;;;;;29.80;66.49;98582.67;221586;1295;138311;-76
2023/06/23 10:55:46;;;;;;;6.80;5.00;;;;;;;29.86;66.07;98576.55;221102;1288;138550;-79
2023/06/23 11:01:09;;;;;;;10.70;5.30;;;;;;;29.96;64.52;98575.84;221082;1290;138762;-77
2023/06/23 11:06:11;;;;;;;323.00;51.50;;;;;;;30.03;64.00;98582.42;221189;1285;138837;-76
2023/06/23 11:11:15;;;;;;;380.20;124.60;;;;;;;30.05;62.69;98583.23;221537;1289;25653;-78
2023/06/23 11:16:32;;;;;;;576.80;266.90;;;;;;;29.88;62.83;98583.57;221666;1285;138810;-76
2023/06/23 11:21:37;;;;;;;6.50;5.80;;;;;;;29.91;63.12;98584.89;221713;1289;139273;-75
2023/06/23 11:26:44;;;;;;;8.70;6.10;;;;;;;30.06;63.40;98591.17;221818;1282;138530;-76
2023/06/23 11:32:06;;;;;;;6.50;5.30;;;;;;;30.33;62.94;98590.70;221728;1301;138514;-76
2023/06/23 11:37:09;;;;;;;7.60;5.80;;;;;;;30.43;61.15;98593.02;221657;1292;138670;-77
2023/06/23 11:42:11;;;;;;;8.50;5.40;;;;;;;30.43;60.69;98587.25;221618;1301;138292;-76
2023/06/23 11:47:13;;;;;;;7.30;5.80;;;;;;;30.50;60.76;98589.81;221765;1296;25086;-77
2023/06/23 11:52:16;;;;;;;6.90;5.40;;;;;;;30.41;60.07;98584.91;221773;1302;137711;-77
2023/06/23 11:57:21;;;;;;;6.00;4.80;;;;;;;30.29;60.12;98580.30;221556;1295;138063;-77
2023/06/23 12:02:24;;;;;;;8.50;5.70;;;;;;;30.16;58.71;98573.95;221396;1279;138435;-77
2023/06/23 12:07:29;;;;;;;7.90;4.50;;;;;;;29.99;58.98;98568.30;221499;1301;137813;-74
2023/06/23 12:12:34;;;;;;;6.30;4.80;;;;;;;29.94;58.70;98557.21;221582;1301;138352;-72
2023/06/23 12:17:43;;;;;;;8.60;5.60;;;;;;;29.88;58.64;98552.83;221730;1301;137832;-72
2023/06/23 12:22:51;;;;;;;5.10;4.40;;;;;;;29.91;58.80;98556.30;221648;1301;22592;-75
2023/06/23 12:28:10;;;;;;;5.60;4.70;;;;;;;30.00;58.64;98561.10;221587;1282;137905;-75
2023/06/23 12:33:13;;;;;;;7.80;4.70;;;;;;;30.04;58.53;98570.14;221462;1296;138052;-74
2023/06/23 12:38:27;;;;;;;5.40;4.50;;;;;;;30.08;58.25;98558.45;221944;1301;138171;-74
2023/06/23 12:43:30;;;;;;;5.20;4.50;;;;;;;30.03;56.92;98567.55;221524;1298;138209;-75
2023/06/23 12:48:33;;;;;;;6.30;4.40;;;;;;;30.03;57.92;98564.66;221794;1295;137939;-73
2023/06/23 12:53:36;;;;;;;5.20;4.60;;;;;;;30.21;57.86;98564.14;221709;1301;138548;-74
2023/06/23 12:58:38;;;;;;;6.40;4.50;;;;;;;30.34;56.76;98554.98;221601;1298;22579;-74
2023/06/23 13:03:43;;;;;;;6.60;4.50;;;;;;;30.34;55.55;98540.43;221211;1298;137696;-73
2023/06/23 13:08:48;;;;;;;6.40;4.00;;;;;;;30.26;55.89;98534.94;221440;1302;137644;-74
2023/06/23 13:13:54;;;;;;;6.50;4.40;;;;;;;30.22;55.65;98543.66;221723;1301;137851;-75
2023/06/23 13:19:00;;;;;;;6.10;4.40;;;;;;;30.07;55.42;98548.73;221855;1302;137831;-75
2023/06/23 13:24:05;;;;;;;6.70;4.80;;;;;;;29.87;56.25;98547.33;221697;1303;138049;-74
2023/06/23 13:29:08;;;;;;;4.50;4.10;;;;;;;29.80;56.91;98549.23;221917;1301;22565;-75
2023/06/23 13:34:10;;;;;;;7.50;5.90;;;;;;;29.75;56.94;98557.44;221363;1288;137760;-75
2023/06/23 13:39:21;;;;;;;6.80;5.00;;;;;;;29.66;57.37;98578.73;221601;1301;138513;-76
2023/06/23 13:44:25;;;;;;;6.60;4.20;;;;;;;29.43;57.92;98582.84;221748;1295;138247;-75
2023/06/23 13:49:28;;;;;;;7.70;5.20;;;;;;;29.17;58.62;98588.25;221730;1286;138176;-78
2023/06/23 13:54:30;;;;;;;7.20;4.60;;;;;;;28.88;59.18;98597.02;221552;1280;138400;-78
2023/06/23 13:59:32;;;;;;;7.50;5.30;;;;;;;28.51;60.08;98607.27;221920;1296;138187;-78
2023/06/23 14:04:35;;;;;;;9.40;6.40;;;;;;;28.16;61.74;98618.80;221382;1301;22568;-78
2023/06/23 14:09:39;;;;;;;8.60;5.70;;;;;;;27.66;63.55;98627.27;221809;1302;22650;-79
2023/06/23 14:14:44;;;;;;;10.00;6.00;;;;;;;27.23;64.71;98629.46;221567;1302;22594;-80
2023/06/23 14:19:47;;;;;;;6.60;5.60;;;;;;;27.12;65.61;98641.95;221532;1302;24416;-80
2023/06/23 14:24:50;;;;;;;7.30;6.20;;;;;;;27.10;66.38;98655.86;221781;1302;25322;-80
2023/06/23 14:29:53;;;;;;;6.90;5.70;;;;;;;27.32;66.80;98655.35;221960;1301;22700;-80
2023/06/23 14:35:05;;;;;;;7.70;5.60;;;;;;;27.53;66.53;98650.77;222256;1301;22572;-80
2023/06/23 14:40:09;;;;;;;9.40;5.70;;;;;;;27.59;65.92;98648.79;222353;1299;24388;-79
2023/06/23 14:45:11;;;;;;;9.20;5.90;;;;;;;27.58;65.92;98651.19;222237;1301;23052;-79
2023/06/23 14:50:14;;;;;;;6.60;6.00;;;;;;;27.50;65.51;98639.46;222304;1302;22711;-79
2023/06/23 14:55:17;;;;;;;8.50;6.50;;;;;;;27.53;65.35;98635.55;222104;1302;22598;-79
2023/06/23 15:00:20;;;;;;;8.50;6.20;;;;;;;27.62;65.46;98629.38;222260;1299;23263;-79
2023/06/23 15:05:38;;;;;;;7.80;6.30;;;;;;;27.80;65.05;98635.26;222271;1302;24282;-79
2023/06/23 15:10:43;;;;;;;7.00;6.00;;;;;;;27.75;64.23;98645.61;222107;1302;22819;-79
2023/06/23 15:15:51;;;;;;;7.00;6.30;;;;;;;27.46;63.31;98637.23;222257;1302;22692;-79
2023/06/23 15:21:08;;;;;;;12.50;6.10;;;;;;;27.07;64.10;98626.08;222352;1302;22552;-80
2023/06/23 15:26:27;;;;;;;7.30;5.30;;;;;;;26.51;64.91;98607.75;222322;1302;22627;-78
2023/06/23 15:31:58;;;;;;;7.60;5.90;;;;;;;26.04;65.52;98596.88;222142;1302;22556;-79
2023/06/23 15:37:26;;;;;;;12.00;10.70;;;;;;;25.82;66.75;98581.44;222304;1302;22601;-79
2023/06/23 15:42:48;;;;;;;6.60;5.50;;;;;;;26.01;66.94;98579.65;222245;1303;22601;-80
2023/06/23 15:48:10;;;;;;;6.20;5.30;;;;;;;26.34;66.74;98587.94;222395;1302;25450;-80
2023/06/23 15:53:18;;;;;;;6.10;5.10;;;;;;;26.69;66.17;98592.01;222121;1302;22586;-80
2023/06/23 15:58:39;;;;;;;;;;;;;;;;;;;;;
2023/06/23 16:04:20;;;;;;;7.70;4.80;;;;;;;27.44;65.64;98595.89;222270;1303;22579;-80
2023/06/23 16:09:26;;;;;;;6.10;5.30;;;;;;;27.65;65.16;98611.02;222403;1280;24298;-80
2023/06/23 16:14:34;;;;;;;;;;;;;;;27.84;64.83;98607.41;222293;1303;22593;-80
2023/06/23 16:20:14;;;;;;;;;;;;;;;;;;;;;
2023/06/23 16:25:31;;;;;;;5.60;5.00;;;;;;;28.24;64.71;98592.11;222376;1295;24225;-79
2023/06/23 16:30:34;;;;;;;6.20;4.80;;;;;;;28.44;64.10;98588.05;222309;1303;22565;-80
2023/06/23 16:35:45;;;;;;;5.80;4.70;;;;;;;28.46;63.32;98580.45;222272;1303;22585;-80
2023/06/23 16:40:56;;;;;;;6.70;5.50;;;;;;;28.36;63.25;98586.88;222360;1302;22759;-80
2023/06/23 16:46:10;;;;;;;5.90;5.30;;;;;;;28.23;63.05;98593.01;222076;1303;22582;-80
2023/06/23 16:51:19;;;;;;;7.40;5.10;;;;;;;28.11;63.50;98590.48;222116;1301;22569;-79
2023/06/23 16:56:38;;;;;;;8.00;5.30;;;;;;;28.05;63.31;98588.16;222272;1302;22580;-79
2023/06/23 17:01:50;;;;;;;8.10;4.70;;;;;;;28.09;63.70;98583.73;222239;1303;22610;-79
2023/06/23 17:06:56;;;;;;;5.90;5.20;;;;;;;28.19;63.59;98585.65;222023;1301;22583;-80
2023/06/23 17:12:03;;;;;;;6.40;5.50;;;;;;;28.13;63.31;98579.38;222096;1303;22767;-79
2023/06/23 17:17:36;;;;;;;6.30;5.10;;;;;;;28.02;63.63;98568.64;222312;1303;22668;-80
2023/06/23 17:22:53;;;;;;;5.50;5.00;;;;;;;27.96;64.00;98562.98;222228;1301;22725;-79
2023/06/23 17:28:04;;;;;;;7.70;5.50;;;;;;;27.87;64.44;98564.96;222229;1303;22571;-79
2023/06/23 17:33:15;;;;;;;6.10;5.10;;;;;;;27.64;64.45;98588.23;222043;1301;22564;-79
2023/06/23 17:38:25;;;;;;;5.20;4.70;;;;;;;27.39;64.91;98605.17;222182;1301;22577;-79
2023/06/23 17:43:34;;;;;;;5.70;3.90;;;;;;;27.15;64.85;98613.56;222201;1302;22572;-79
2023/06/23 17:48:40;;;;;;;4.00;3.50;;;;;;;26.95;64.36;98634.64;222321;1302;22552;-80
2023/06/23 17:53:47;;;;;;;5.70;2.80;;;;;;;26.84;63.85;98667.71;222182;1302;22573;-79
2023/06/23 17:58:55;;;;;;;4.00;2.50;;;;;;;26.43;62.97;98686.24;222453;1298;22540;-79
2023/06/23 18:04:01;;;;;;;2.30;2.10;;;;;;;25.98;62.63;98681.22;222296;1301;22584;-79
2023/06/23 18:09:18;;;;;;;3.00;2.70;;;;;;;25.61;62.24;98681.66;222338;1302;22591;-79
2023/06/23 18:14:36;;;;;;;3.70;2.50;;;;;;;25.25;62.22;98685.50;221388;1299;3405005;-78
2023/06/23 18:19:48;;;;;;;5.60;3.00;;;;;;;24.91;62.27;98693.70;222281;1302;22569;-79
2023/06/23 18:24:57;;;;;;;2.70;2.50;;;;;;;24.57;62.31;98706.42;222377;1302;22575;-80
2023/06/23 18:30:08;;;;;;;2.80;2.60;;;;;;;24.28;62.51;98711.80;222295;1300;22582;-78
2023/06/23 18:35:24;;;;;;;2.30;2.20;;;;;;;24.00;62.65;98723.67;222394;1295;22573;-79
2023/06/23 18:40:27;;;;;;;3.40;2.60;;;;;;;23.77;62.90;98709.30;222353;1302;22569;-79
2023/06/23 18:45:42;;;;;;;2.80;2.50;;;;;;;23.61;63.17;98711.14;222310;1292;22582;-79
2023/06/23 18:51:00;;;;;;;4.10;2.50;;;;;;;23.49;63.40;98726.40;222380;1302;22617;-79
2023/06/23 18:56:05;;;;;;;2.90;2.50;;;;;;;23.36;63.59;98727.45;222105;1303;22565;-78
2023/06/23 19:01:19;;;;;;;3.30;2.40;;;;;;;23.22;63.49;98735.45;222336;1302;22577;-79
2023/06/23 19:06:22;;;;;;;3.40;2.50;;;;;;;23.06;63.50;98744.99;222240;1302;22573;-78
2023/06/23 19:11:30;;;;;;;3.30;2.30;;;;;;;22.92;63.53;98749.41;222286;1302;22637;-78
2023/06/23 19:16:55;;;;;;;3.10;2.10;;;;;;;22.79;63.57;98755.70;222370;1302;22599;-78
2023/06/23 19:22:28;;;;;;;2.80;2.10;;;;;;;22.65;63.74;98755.45;222342;1302;22573;-78
2023/06/23 19:27:53;;;;;;;2.60;2.20;;;;;;;22.54;64.05;98774.99;222265;1302;22630;-78
2023/06/23 19:33:02;;;;;;;3.50;1.90;;;;;;;22.46;64.25;98800.05;222090;1302;22576;-78
2023/06/23 19:38:59;;;;;;;3.50;2.30;;;;;;;22.38;64.45;98815.01;222280;1302;22633;-78
2023/06/23 19:44:21;;;;;;;3.20;2.60;;;;;;;22.33;64.51;98811.80;222394;1298;22540;-78
2023/06/23 19:49:37;;;;;;;2.50;2.10;;;;;;;22.25;64.85;98806.48;222385;1302;22584;-77
2023/06/23 19:54:58;;;;;;;4.40;2.40;;;;;;;22.14;65.09;98807.79;222280;1302;24221;-78
2023/06/23 20:00:17;;;;;;;2.80;2.40;;;;;;;22.04;65.33;98810.11;222306;1302;22586;-78
2023/06/23 20:05:40;;;;;;;3.00;2.20;;;;;;;21.95;65.30;98808.04;222154;1302;22581;-78
2023/06/23 20:10:56;;;;;;;2.40;2.00;;;;;;;21.86;65.46;98807.12;222186;1302;22777;-78
2023/06/23 20:16:44;;;;;;;2.10;2.00;;;;;;;21.77;65.74;98825.15;222327;1303;23043;-77
2023/06/23 20:22:05;;;;;;;2.50;2.30;;;;;;;21.72;65.99;98834.27;222094;1302;22577;-78
2023/06/23 20:27:15;;;;;;;4.20;2.70;;;;;;;21.67;66.21;98839.65;222284;1295;22589;-77
2023/06/23 20:32:38;;;;;;;3.10;2.20;;;;;;;21.62;66.55;98846.63;222284;1303;22630;-78
2023/06/23 20:37:48;;;;;;;2.00;1.90;;;;;;;21.57;66.52;98842.48;222098;1302;22658;-79
2023/06/23 20:43:06;;;;;;;2.00;1.80;;;;;;;21.51;66.52;98843.86;221987;1302;22560;-79
2023/06/23 20:48:27;;;;;;;2.70;2.30;;;;;;;21.50;66.62;98844.01;222181;1302;24337;-78
2023/06/23 20:53:38;;;;;;;2.30;2.10;;;;;;;21.44;66.54;98836.10;222289;1302;22601;-78
2023/06/23 20:58:47;;;;;;;2.50;2.00;;;;;;;21.38;66.56;98852.07;222204;1301;22558;-78
2023/06/23 21:03:53;;;;;;;2.40;2.20;;;;;;;21.33;66.58;98863.17;222034;1303;22577;-77
2023/06/23 21:09:07;;;;;;;2.50;1.70;;;;;;;21.30;66.58;98861.30;222260;1295;22598;-77
2023/06/23 21:14:23;;;;;;;2.80;1.80;;;;;;;21.26;66.56;98867.19;221906;1302;22580;-78
2023/06/23 21:19:38;;;;;;;2.00;1.90;;;;;;;21.20;66.57;98866.31;222215;1302;24285;-78
2023/06/23 21:24:47;;;;;;;2.00;1.90;;;;;;;21.09;66.46;98869.09;222162;1282;22598;-78
2023/06/23 21:30:04;;;;;;;2.10;1.70;;;;;;;20.98;66.74;98861.51;222202;1303;25432;-78
2023/06/23 21:36:11;;;;;;;;;;;;;;;;;;;;;
2023/06/23 21:41:34;;;;;;;2.20;1.90;;;;;;;20.68;67.16;98889.44;222243;1282;24744;-78
2023/06/23 21:46:46;;;;;;;2.20;2.00;;;;;;;20.53;67.40;98895.63;222187;1301;23283;-77
2023/06/23 21:52:00;;;;;;;5.00;1.80;;;;;;;20.40;67.61;98894.01;222190;1302;22551;-79
2023/06/23 21:57:03;;;;;;;2.00;1.80;;;;;;;20.29;67.99;98900.02;221955;1302;22594;-78
2023/06/23 22:02:06;;;;;;;3.10;2.10;;;;;;;20.17;68.33;98898.13;222034;1302;22555;-78
2023/06/23 22:07:09;;;;;;;2.60;2.10;;;;;;;20.04;68.60;98910.67;222192;1296;23883;-78
2023/06/23 22:12:15;;;;;;;2.40;1.90;;;;;;;19.99;68.94;98917.13;221929;1301;22593;-78
2023/06/23 22:17:17;;;;;;;3.50;2.30;;;;;;;19.97;69.09;98909.76;221947;1302;22579;-78
2023/06/23 22:22:22;;;;;;;2.40;1.80;;;;;;;19.95;69.18;98911.44;222204;1302;22548;-78
2023/06/23 22:27:29;;;;;;;2.70;1.90;;;;;;;19.93;69.34;98905.45;222021;1301;22602;-78
2023/06/23 22:32:31;;;;;;;2.00;1.90;;;;;;;19.90;69.32;98900.14;222272;1299;22595;-78
2023/06/23 22:37:34;;;;;;;3.70;2.20;;;;;;;19.87;69.44;98907.15;222253;1302;24246;-78
2023/06/23 22:42:36;;;;;;;3.30;1.80;;;;;;;19.86;69.50;98898.19;222235;1301;22682;-78
2023/06/23 22:47:38;;;;;;;1.80;1.70;;;;;;;19.85;69.49;98886.25;222225;1298;22577;-78
2023/06/23 22:52:41;;;;;;;3.10;1.80;;;;;;;19.82;69.51;98898.95;222232;1301;22615;-79
2023/06/23 22:57:43;;;;;;;3.10;2.10;;;;;;;19.77;69.72;98909.55;222203;1298;22566;-81
2023/06/23 23:02:46;;;;;;;2.10;1.90;;;;;;;19.74;69.87;98914.66;222244;1296;22642;-77
2023/06/23 23:07:51;;;;;;;2.40;2.00;;;;;;;19.70;70.02;98901.68;222289;1300;22573;-77
2023/06/23 23:13:16;;;;;;;1.80;1.70;;;;;;;19.65;70.11;98900.89;222448;1302;22679;-78
2023/06/23 23:18:39;;;;;;;2.00;1.90;;;;;;;19.64;70.26;98902.69;222400;1288;22572;-78
2023/06/23 23:23:57;;;;;;;5.80;2.20;;;;;;;19.63;70.41;98896.52;222323;1302;23073;-77
2023/06/23 23:29:02;;;;;;;3.60;1.60;;;;;;;19.64;70.37;98902.36;222257;1302;22588;-78
2023/06/23 23:34:09;;;;;;;2.10;2.00;;;;;;;19.60;70.50;98907.92;222376;1299;22553;-78
2023/06/23 23:39:14;;;;;;;1.90;1.80;;;;;;;19.58;70.63;98909.03;222090;1302;22590;-78
2023/06/23 23:44:19;;;;;;;3.80;3.40;;;;;;;19.57;70.65;98911.77;222214;1298;23224;-78
2023/06/23 23:49:48;;;;;;;2.50;2.00;;;;;;;19.56;70.76;98915.50;222208;1298;22565;-78
2023/06/23 23:55:22;;;;;;;;;;;;;;;;;;;;;
